Terminal Aerodrome Forecast
Issued by NWS

Home | Current Version | Previous Version | Text Only | Print | Product List | Glossary On
Versions: 1 2 3 4 5 6 7 8 9 10 11 12 13 14 15 16 17 18 19 20 21 22 23 24 25 26 27 28 29 30 31 32 33 34 35 36 37 38 39 40 41 42 43 44 45 46
974
FTUS45 KBOU 221141
TAFBJC
TAF
KBJC 221141Z 2212/2312 01008KT P6SM FEW220
     FM221400 18008KT P6SM FEW220
     FM221800 14012G20KT P6SM FEW100
     FM222200 06010G18KT P6SM SCT100 BKN220=

USA.gov is the U.S. government's official web portal to all federal, state and local government web resources and services.